sensor_id;sensor_type;location;lat;lon;timestamp;P1;durP1;ratioP1;P2;durP2;ratioP2
85223;SDS011;75619;51.316;4.824;2024-03-23T00:53:58;17.13;;;4.13;;
85223;SDS011;75619;51.316;4.824;2024-03-23T00:56:24;12.38;;;3.90;;
85223;SDS011;75619;51.316;4.824;2024-03-23T00:58:50;14.82;;;3.75;;
85223;SDS011;75619;51.316;4.824;2024-03-23T01:01:15;12.57;;;3.00;;
85223;SDS011;75619;51.316;4.824;2024-03-23T01:03:41;10.93;;;3.08;;
85223;SDS011;75619;51.316;4.824;2024-03-23T01:06:09;12.15;;;3.13;;
85223;SDS011;75619;51.316;4.824;2024-03-23T01:08:35;9.95;;;3.25;;
85223;SDS011;75619;51.316;4.824;2024-03-23T01:11:01;17.83;;;3.97;;
85223;SDS011;75619;51.316;4.824;2024-03-23T01:13:27;13.05;;;3.30;;
85223;SDS011;75619;51.316;4.824;2024-03-23T01:15:54;12.60;;;3.50;;
85223;SDS011;75619;51.316;4.824;2024-03-23T01:18:21;15.93;;;3.72;;
85223;SDS011;75619;51.316;4.824;2024-03-23T01:20:49;24.20;;;3.58;;
85223;SDS011;75619;51.316;4.824;2024-03-23T01:23:15;14.48;;;3.60;;
85223;SDS011;75619;51.316;4.824;2024-03-23T01:25:40;9.73;;;3.65;;
85223;SDS011;75619;51.316;4.824;2024-03-23T01:28:06;13.25;;;3.40;;
85223;SDS011;75619;51.316;4.824;2024-03-23T01:30:32;14.55;;;3.30;;
85223;SDS011;75619;51.316;4.824;2024-03-23T01:32:58;11.73;;;3.60;;
85223;SDS011;75619;51.316;4.824;2024-03-23T01:35:24;14.20;;;3.67;;
85223;SDS011;75619;51.316;4.824;2024-03-23T01:37:50;13.07;;;3.45;;
85223;SDS011;75619;51.316;4.824;2024-03-23T01:40:18;13.07;;;3.80;;
85223;SDS011;75619;51.316;4.824;2024-03-23T01:43:06;17.88;;;3.17;;
85223;SDS011;75619;51.316;4.824;2024-03-23T01:45:33;17.40;;;3.65;;
85223;SDS011;75619;51.316;4.824;2024-03-23T01:47:59;12.50;;;3.60;;
85223;SDS011;75619;51.316;4.824;2024-03-23T01:50:25;6.97;;;2.97;;
85223;SDS011;75619;51.316;4.824;2024-03-23T01:52:52;12.45;;;2.85;;
85223;SDS011;75619;51.316;4.824;2024-03-23T01:55:19;17.80;;;3.53;;
85223;SDS011;75619;51.316;4.824;2024-03-23T01:57:45;12.20;;;4.32;;
85223;SDS011;75619;51.316;4.824;2024-03-23T02:00:11;14.57;;;4.53;;
85223;SDS011;75619;51.316;4.824;2024-03-23T02:02:43;12.65;;;3.75;;
85223;SDS011;75619;51.316;4.824;2024-03-23T02:05:10;14.18;;;3.72;;
85223;SDS011;75619;51.316;4.824;2024-03-23T02:07:37;12.68;;;3.80;;
85223;SDS011;75619;51.316;4.824;2024-03-23T02:10:05;17.80;;;4.65;;
85223;SDS011;75619;51.316;4.824;2024-03-23T02:12:32;13.10;;;4.07;;
85223;SDS011;75619;51.316;4.824;2024-03-23T02:14:58;12.70;;;3.28;;
85223;SDS011;75619;51.316;4.824;2024-03-23T02:17:23;16.23;;;4.10;;
85223;SDS011;75619;51.316;4.824;2024-03-23T02:19:50;12.25;;;3.40;;
85223;SDS011;75619;51.316;4.824;2024-03-23T02:22:15;18.52;;;4.05;;
85223;SDS011;75619;51.316;4.824;2024-03-23T02:24:41;15.95;;;3.67;;
85223;SDS011;75619;51.316;4.824;2024-03-23T02:27:07;13.35;;;3.63;;
85223;SDS011;75619;51.316;4.824;2024-03-23T02:29:33;13.23;;;3.53;;
85223;SDS011;75619;51.316;4.824;2024-03-23T02:31:59;12.63;;;3.55;;
85223;SDS011;75619;51.316;4.824;2024-03-23T02:34:24;9.38;;;3.35;;
85223;SDS011;75619;51.316;4.824;2024-03-23T02:36:50;17.40;;;3.95;;
85223;SDS011;75619;51.316;4.824;2024-03-23T02:39:16;19.08;;;4.38;;
85223;SDS011;75619;51.316;4.824;2024-03-23T02:41:41;18.15;;;4.50;;
85223;SDS011;75619;51.316;4.824;2024-03-23T02:44:07;14.07;;;3.42;;
85223;SDS011;75619;51.316;4.824;2024-03-23T02:46:33;16.75;;;4.22;;
85223;SDS011;75619;51.316;4.824;2024-03-23T02:48:58;16.88;;;4.28;;
85223;SDS011;75619;51.316;4.824;2024-03-23T02:51:42;20.92;;;3.95;;
85223;SDS011;75619;51.316;4.824;2024-03-23T02:54:28;14.32;;;3.33;;
85223;SDS011;75619;51.316;4.824;2024-03-23T02:56:54;11.02;;;3.50;;
85223;SDS011;75619;51.316;4.824;2024-03-23T02:59:20;16.40;;;3.72;;
85223;SDS011;75619;51.316;4.824;2024-03-23T03:01:45;14.40;;;4.28;;
85223;SDS011;75619;51.316;4.824;2024-03-23T03:04:11;14.55;;;3.65;;
85223;SDS011;75619;51.316;4.824;2024-03-23T03:06:36;10.20;;;3.47;;
85223;SDS011;75619;51.316;4.824;2024-03-23T03:09:02;14.73;;;4.07;;
85223;SDS011;75619;51.316;4.824;2024-03-23T03:11:28;20.27;;;3.60;;
85223;SDS011;75619;51.316;4.824;2024-03-23T03:13:53;23.20;;;5.20;;
85223;SDS011;75619;51.316;4.824;2024-03-23T03:16:19;19.17;;;5.00;;
85223;SDS011;75619;51.316;4.824;2024-03-23T03:18:45;17.02;;;4.22;;
85223;SDS011;75619;51.316;4.824;2024-03-23T03:21:12;19.55;;;4.85;;
85223;SDS011;75619;51.316;4.824;2024-03-23T03:23:38;15.70;;;4.85;;
85223;SDS011;75619;51.316;4.824;2024-03-23T03:26:04;15.25;;;4.72;;
85223;SDS011;75619;51.316;4.824;2024-03-23T03:28:31;20.95;;;4.75;;
85223;SDS011;75619;51.316;4.824;2024-03-23T03:30:58;11.07;;;5.20;;
85223;SDS011;75619;51.316;4.824;2024-03-23T03:33:24;15.18;;;4.32;;
85223;SDS011;75619;51.316;4.824;2024-03-23T03:35:50;15.25;;;4.93;;
85223;SDS011;75619;51.316;4.824;2024-03-23T10:27:35;7.38;;;1.33;;
85223;SDS011;75619;51.316;4.824;2024-03-23T10:30:11;6.53;;;2.20;;
85223;SDS011;75619;51.316;4.824;2024-03-23T10:32:39;14.55;;;3.65;;
85223;SDS011;75619;51.316;4.824;2024-03-23T10:35:18;11.15;;;3.42;;
85223;SDS011;75619;51.316;4.824;2024-03-23T10:37:46;15.75;;;2.38;;
85223;SDS011;75619;51.316;4.824;2024-03-23T10:40:13;9.43;;;3.60;;
85223;SDS011;75619;51.316;4.824;2024-03-23T10:42:39;4.43;;;1.58;;
85223;SDS011;75619;51.316;4.824;2024-03-23T10:45:05;9.23;;;2.58;;
85223;SDS011;75619;51.316;4.824;2024-03-23T10:47:31;10.23;;;2.42;;
85223;SDS011;75619;51.316;4.824;2024-03-23T10:49:57;10.07;;;3.63;;
85223;SDS011;75619;51.316;4.824;2024-03-23T10:52:23;13.45;;;1.75;;
85223;SDS011;75619;51.316;4.824;2024-03-23T10:54:50;8.52;;;2.35;;
85223;SDS011;75619;51.316;4.824;2024-03-23T10:57:21;16.08;;;2.95;;
85223;SDS011;75619;51.316;4.824;2024-03-23T19:33:49;9.90;;;3.53;;
85223;SDS011;75619;51.316;4.824;2024-03-23T19:36:14;7.35;;;2.83;;
85223;SDS011;75619;51.316;4.824;2024-03-23T19:38:41;6.88;;;2.83;;
85223;SDS011;75619;51.316;4.824;2024-03-23T19:41:07;9.95;;;3.92;;
85223;SDS011;75619;51.316;4.824;2024-03-23T19:43:32;11.27;;;3.97;;
85223;SDS011;75619;51.316;4.824;2024-03-23T19:46:01;8.77;;;4.63;;
85223;SDS011;75619;51.316;4.824;2024-03-23T19:48:28;9.45;;;2.70;;
85223;SDS011;75619;51.316;4.824;2024-03-23T19:50:57;5.28;;;2.50;;
85223;SDS011;75619;51.316;4.824;2024-03-23T19:53:24;4.10;;;1.50;;
85223;SDS011;75619;51.316;4.824;2024-03-23T19:55:58;5.95;;;1.38;;
85223;SDS011;75619;51.316;4.824;2024-03-23T19:58:33;3.65;;;1.52;;
85223;SDS011;75619;51.316;4.824;2024-03-23T20:01:10;4.85;;;2.40;;
85223;SDS011;75619;51.316;4.824;2024-03-23T20:03:39;7.28;;;1.88;;
85223;SDS011;75619;51.316;4.824;2024-03-23T20:06:05;6.22;;;1.80;;
85223;SDS011;75619;51.316;4.824;2024-03-23T20:08:33;4.95;;;1.60;;
85223;SDS011;75619;51.316;4.824;2024-03-23T20:11:00;3.55;;;1.75;;
85223;SDS011;75619;51.316;4.824;2024-03-23T20:13:26;3.50;;;1.63;;
85223;SDS011;75619;51.316;4.824;2024-03-23T20:15:55;7.95;;;2.50;;
85223;SDS011;75619;51.316;4.824;2024-03-23T20:18:21;3.80;;;1.83;;
85223;SDS011;75619;51.316;4.824;2024-03-23T20:20:48;5.03;;;2.60;;
85223;SDS011;75619;51.316;4.824;2024-03-23T20:23:16;7.18;;;2.35;;
85223;SDS011;75619;51.316;4.824;2024-03-23T20:25:55;4.80;;;2.13;;
85223;SDS011;75619;51.316;4.824;2024-03-23T20:28:23;7.97;;;1.90;;
85223;SDS011;75619;51.316;4.824;2024-03-23T20:33:22;9.40;;;3.08;;
85223;SDS011;75619;51.316;4.824;2024-03-23T20:35:48;6.30;;;2.13;;
85223;SDS011;75619;51.316;4.824;2024-03-23T20:38:18;4.63;;;1.95;;
85223;SDS011;75619;51.316;4.824;2024-03-23T20:41:06;3.50;;;1.42;;
85223;SDS011;75619;51.316;4.824;2024-03-23T20:43:32;5.35;;;1.73;;
85223;SDS011;75619;51.316;4.824;2024-03-23T20:45:58;6.68;;;1.92;;
85223;SDS011;75619;51.316;4.824;2024-03-23T20:48:28;3.42;;;1.90;;
85223;SDS011;75619;51.316;4.824;2024-03-23T20:53:27;5.80;;;1.33;;
85223;SDS011;75619;51.316;4.824;2024-03-23T20:55:53;3.90;;;1.50;;
85223;SDS011;75619;51.316;4.824;2024-03-23T20:58:20;3.35;;;1.30;;
85223;SDS011;75619;51.316;4.824;2024-03-23T21:00:46;5.90;;;1.75;;
85223;SDS011;75619;51.316;4.824;2024-03-23T21:03:13;4.68;;;2.30;;
85223;SDS011;75619;51.316;4.824;2024-03-23T21:05:38;7.32;;;2.22;;
85223;SDS011;75619;51.316;4.824;2024-03-23T21:08:04;7.18;;;2.05;;
85223;SDS011;75619;51.316;4.824;2024-03-23T21:10:30;5.85;;;2.15;;
85223;SDS011;75619;51.316;4.824;2024-03-23T21:12:56;4.55;;;2.28;;
85223;SDS011;75619;51.316;4.824;2024-03-23T21:15:21;5.22;;;1.63;;
85223;SDS011;75619;51.316;4.824;2024-03-23T21:17:47;4.25;;;1.63;;
85223;SDS011;75619;51.316;4.824;2024-03-23T21:20:13;4.50;;;2.10;;
85223;SDS011;75619;51.316;4.824;2024-03-23T21:22:39;7.95;;;3.00;;
85223;SDS011;75619;51.316;4.824;2024-03-23T21:25:05;3.55;;;1.98;;
85223;SDS011;75619;51.316;4.824;2024-03-23T21:27:30;5.32;;;2.03;;
85223;SDS011;75619;51.316;4.824;2024-03-23T21:29:56;10.77;;;2.95;;
85223;SDS011;75619;51.316;4.824;2024-03-23T21:32:22;5.80;;;2.15;;
85223;SDS011;75619;51.316;4.824;2024-03-23T21:34:49;6.65;;;2.42;;
85223;SDS011;75619;51.316;4.824;2024-03-23T21:37:14;6.55;;;2.50;;
85223;SDS011;75619;51.316;4.824;2024-03-23T21:39:40;5.97;;;2.28;;
85223;SDS011;75619;51.316;4.824;2024-03-23T21:42:06;4.68;;;2.17;;
85223;SDS011;75619;51.316;4.824;2024-03-23T21:44:32;4.05;;;1.40;;
85223;SDS011;75619;51.316;4.824;2024-03-23T21:46:57;9.50;;;3.40;;
85223;SDS011;75619;51.316;4.824;2024-03-23T21:49:23;7.85;;;2.17;;
85223;SDS011;75619;51.316;4.824;2024-03-23T21:51:51;7.75;;;2.45;;
85223;SDS011;75619;51.316;4.824;2024-03-23T21:54:16;6.80;;;2.10;;
85223;SDS011;75619;51.316;4.824;2024-03-23T21:56:42;7.38;;;2.50;;
85223;SDS011;75619;51.316;4.824;2024-03-23T21:59:08;16.00;;;2.83;;
85223;SDS011;75619;51.316;4.824;2024-03-23T22:01:35;8.73;;;2.35;;
85223;SDS011;75619;51.316;4.824;2024-03-23T22:04:01;8.23;;;2.05;;
85223;SDS011;75619;51.316;4.824;2024-03-23T22:06:28;4.72;;;1.90;;
85223;SDS011;75619;51.316;4.824;2024-03-23T22:08:54;6.03;;;1.88;;
85223;SDS011;75619;51.316;4.824;2024-03-23T22:11:19;10.27;;;2.85;;
85223;SDS011;75619;51.316;4.824;2024-03-23T22:13:45;14.80;;;3.10;;
85223;SDS011;75619;51.316;4.824;2024-03-23T22:16:12;9.85;;;2.80;;
85223;SDS011;75619;51.316;4.824;2024-03-23T22:18:38;5.53;;;2.25;;
85223;SDS011;75619;51.316;4.824;2024-03-23T22:21:04;13.35;;;3.45;;
85223;SDS011;75619;51.316;4.824;2024-03-23T22:23:30;8.10;;;2.60;;
85223;SDS011;75619;51.316;4.824;2024-03-23T22:25:56;13.40;;;3.10;;
85223;SDS011;75619;51.316;4.824;2024-03-23T22:28:27;8.93;;;2.40;;
85223;SDS011;75619;51.316;4.824;2024-03-23T22:33:36;4.53;;;2.40;;
85223;SDS011;75619;51.316;4.824;2024-03-23T22:36:02;5.70;;;2.10;;
85223;SDS011;75619;51.316;4.824;2024-03-23T22:38:28;7.22;;;2.60;;
85223;SDS011;75619;51.316;4.824;2024-03-23T22:40:54;11.35;;;3.05;;
85223;SDS011;75619;51.316;4.824;2024-03-23T22:43:21;5.30;;;1.95;;
85223;SDS011;75619;51.316;4.824;2024-03-23T22:45:54;7.90;;;2.25;;
85223;SDS011;75619;51.316;4.824;2024-03-23T22:48:22;7.65;;;2.22;;
85223;SDS011;75619;51.316;4.824;2024-03-23T22:50:49;5.72;;;2.42;;
85223;SDS011;75619;51.316;4.824;2024-03-23T22:53:15;6.07;;;2.30;;
85223;SDS011;75619;51.316;4.824;2024-03-23T22:55:43;3.92;;;2.25;;
85223;SDS011;75619;51.316;4.824;2024-03-23T22:58:10;6.32;;;2.78;;
85223;SDS011;75619;51.316;4.824;2024-03-23T23:00:37;5.32;;;2.33;;
85223;SDS011;75619;51.316;4.824;2024-03-23T23:03:06;5.30;;;2.13;;
85223;SDS011;75619;51.316;4.824;2024-03-23T23:05:33;4.57;;;2.15;;
85223;SDS011;75619;51.316;4.824;2024-03-23T23:07:58;4.38;;;2.20;;
85223;SDS011;75619;51.316;4.824;2024-03-23T23:10:24;4.85;;;2.08;;
85223;SDS011;75619;51.316;4.824;2024-03-23T23:12:50;5.25;;;2.10;;
85223;SDS011;75619;51.316;4.824;2024-03-23T23:15:16;5.03;;;2.15;;
85223;SDS011;75619;51.316;4.824;2024-03-23T23:17:41;7.95;;;2.03;;
85223;SDS011;75619;51.316;4.824;2024-03-23T23:20:07;4.90;;;1.95;;
85223;SDS011;75619;51.316;4.824;2024-03-23T23:22:35;4.65;;;2.20;;
85223;SDS011;75619;51.316;4.824;2024-03-23T23:25:01;6.00;;;2.50;;
85223;SDS011;75619;51.316;4.824;2024-03-23T23:27:27;5.05;;;2.10;;
85223;SDS011;75619;51.316;4.824;2024-03-23T23:29:53;6.18;;;1.98;;
85223;SDS011;75619;51.316;4.824;2024-03-23T23:32:19;7.85;;;2.83;;
85223;SDS011;75619;51.316;4.824;2024-03-23T23:34:45;4.38;;;2.30;;
85223;SDS011;75619;51.316;4.824;2024-03-23T23:37:11;6.28;;;1.98;;
85223;SDS011;75619;51.316;4.824;2024-03-23T23:39:37;5.85;;;1.63;;
85223;SDS011;75619;51.316;4.824;2024-03-23T23:42:04;9.18;;;2.60;;
85223;SDS011;75619;51.316;4.824;2024-03-23T23:44:30;7.07;;;2.35;;
85223;SDS011;75619;51.316;4.824;2024-03-23T23:46:56;5.78;;;2.25;;
85223;SDS011;75619;51.316;4.824;2024-03-23T23:49:21;4.10;;;2.22;;
85223;SDS011;75619;51.316;4.824;2024-03-23T23:51:47;3.80;;;1.70;;
85223;SDS011;75619;51.316;4.824;2024-03-23T23:54:13;7.25;;;1.75;;
85223;SDS011;75619;51.316;4.824;2024-03-23T23:56:38;8.48;;;2.25;;
85223;SDS011;75619;51.316;4.824;2024-03-23T23:59:04;4.57;;;2.33;;
